createdAt,value
2023-04-14T00:02:08.709Z,5.63
2023-04-14T00:04:36.220Z,5.46
2023-04-14T00:07:03.133Z,5.58
2023-04-14T00:09:30.329Z,5.81
2023-04-14T00:11:57.730Z,5.86
2023-04-14T00:14:24.579Z,5.59
2023-04-14T00:16:51.474Z,5.60
2023-04-14T00:19:18.374Z,5.66
2023-04-14T00:21:45.158Z,5.63
2023-04-14T00:24:11.926Z,5.54
2023-04-14T00:26:38.903Z,5.57
2023-04-14T00:29:05.845Z,5.56
2023-04-14T00:31:32.772Z,5.71
2023-04-14T00:33:59.623Z,5.75
2023-04-14T00:36:26.377Z,5.74
2023-04-14T00:38:53.190Z,5.71
2023-04-14T00:41:19.951Z,5.70
2023-04-14T00:43:46.660Z,5.67
2023-04-14T00:46:15.319Z,5.64
2023-04-14T00:48:42.174Z,5.72
2023-04-14T00:51:09.667Z,5.58
2023-04-14T00:53:36.396Z,5.63
2023-04-14T00:56:03.868Z,5.33
2023-04-14T00:58:30.746Z,5.44
2023-04-14T01:00:58.550Z,5.43
2023-04-14T01:03:26.638Z,5.40
2023-04-14T01:05:53.460Z,5.33
2023-04-14T01:08:20.763Z,5.48
2023-04-14T01:10:56.212Z,5.39
2023-04-14T01:13:45.190Z,5.48
2023-04-14T01:16:23.202Z,5.42
2023-04-14T01:19:33.546Z,5.44
2023-04-14T01:22:04.484Z,5.53
2023-04-14T01:24:37.187Z,5.55
2023-04-14T01:27:10.629Z,5.45
2023-04-14T01:29:50.219Z,5.37
2023-04-14T01:32:20.780Z,5.40
2023-04-14T01:35:09.354Z,5.26
2023-04-14T01:37:42.312Z,5.40
2023-04-14T01:40:11.897Z,5.38
2023-04-14T01:42:40.646Z,5.41
2023-04-14T01:45:11.624Z,5.46
2023-04-14T01:47:38.912Z,5.49
2023-04-14T01:50:07.163Z,5.50
2023-04-14T01:52:34.862Z,5.52
2023-04-14T01:55:06.177Z,5.44
2023-04-14T01:57:34.365Z,5.48
2023-04-14T02:00:01.828Z,5.47
2023-04-14T02:02:29.237Z,5.44
2023-04-14T02:04:57.808Z,5.49
2023-04-14T02:07:25.593Z,5.40
2023-04-14T02:09:53.952Z,5.46
2023-04-14T02:12:21.121Z,5.50
2023-04-14T02:14:48.448Z,5.47
2023-04-14T02:17:15.400Z,5.45
2023-04-14T02:19:43.724Z,5.48
2023-04-14T02:22:10.853Z,5.65
2023-04-14T02:24:37.623Z,5.64
2023-04-14T02:27:31.184Z,5.71
2023-04-14T02:29:59.135Z,5.55
2023-04-14T02:32:29.450Z,5.57
2023-04-14T02:35:02.454Z,5.55
2023-04-14T02:37:37.248Z,5.50
2023-04-14T02:40:11.226Z,5.50
2023-04-14T02:42:41.527Z,5.49
2023-04-14T02:45:13.719Z,5.53
2023-04-14T02:47:45.826Z,5.48
2023-04-14T02:50:15.186Z,5.49
2023-04-14T02:52:42.819Z,5.55
2023-04-14T02:55:11.122Z,5.52
2023-04-14T02:57:38.325Z,5.55
2023-04-14T03:00:06.698Z,5.46
2023-04-14T03:02:34.063Z,5.46
2023-04-14T03:05:01.996Z,5.29
2023-04-14T03:07:30.040Z,5.22
2023-04-14T03:09:57.506Z,5.26
2023-04-14T03:12:24.722Z,5.41
2023-04-14T03:14:51.908Z,5.43
2023-04-14T03:17:21.958Z,5.49
2023-04-14T03:19:54.802Z,5.58
2023-04-14T03:22:22.535Z,5.45
2023-04-14T03:24:50.883Z,5.44
2023-04-14T03:27:26.459Z,5.54
2023-04-14T03:29:55.370Z,5.45
2023-04-14T03:32:27.036Z,5.39
2023-04-14T03:34:55.766Z,5.43
2023-04-14T03:37:25.263Z,5.44
2023-04-14T03:39:52.722Z,5.52
2023-04-14T03:42:21.406Z,5.48
2023-04-14T03:44:53.464Z,5.52
2023-04-14T03:47:23.781Z,5.50
2023-04-14T03:49:52.105Z,5.42
2023-04-14T03:52:21.341Z,5.33
2023-04-14T03:54:48.768Z,5.33
2023-04-14T03:57:18.159Z,5.34
2023-04-14T03:59:51.191Z,5.35
2023-04-14T04:02:18.534Z,5.41
2023-04-14T04:04:46.848Z,5.43
2023-04-14T04:07:13.982Z,5.45
2023-04-14T04:09:43.140Z,5.43
2023-04-14T04:12:12.039Z,5.45
2023-04-14T04:14:42.275Z,5.50
2023-04-14T04:17:09.853Z,5.42
2023-04-14T04:19:37.500Z,5.34
2023-04-14T04:22:04.617Z,5.30
2023-04-14T04:24:38.564Z,5.32
2023-04-14T04:27:09.875Z,5.40
2023-04-14T04:29:41.632Z,5.32
2023-04-14T04:32:08.480Z,5.33
2023-04-14T04:34:35.654Z,5.28
2023-04-14T04:37:02.972Z,5.31
2023-04-14T04:39:30.267Z,5.32
2023-04-14T04:42:04.910Z,5.34
2023-04-14T04:44:33.293Z,5.42
2023-04-14T04:47:00.856Z,5.41
2023-04-14T04:49:27.715Z,5.40
2023-04-14T04:51:54.693Z,5.43
2023-04-14T04:54:21.859Z,5.35
2023-04-14T04:56:48.828Z,5.41
2023-04-14T04:59:15.752Z,5.38
2023-04-14T05:01:42.754Z,5.12
2023-04-14T05:04:09.843Z,5.25
2023-04-14T05:06:40.153Z,5.37
2023-04-14T05:09:07.194Z,5.39
2023-04-14T05:11:34.281Z,5.45
2023-04-14T05:14:01.513Z,5.46
2023-04-14T05:16:31.775Z,5.38
2023-04-14T05:18:59.768Z,5.40
2023-04-14T05:21:26.794Z,5.48
2023-04-14T05:23:53.637Z,5.44
2023-04-14T05:26:44.529Z,5.41
2023-04-14T05:29:07.365Z,5.42
2023-04-14T05:31:34.267Z,5.48
2023-04-14T05:34:01.459Z,5.49
2023-04-14T05:36:28.770Z,5.60
2023-04-14T05:38:55.627Z,5.31
2023-04-14T05:41:23.153Z,5.23
2023-04-14T05:43:50.140Z,5.17
2023-04-14T05:46:17.022Z,5.31
2023-04-14T05:48:43.720Z,5.48
2023-04-14T05:51:11.081Z,5.43
2023-04-14T05:53:38.121Z,5.63
2023-04-14T05:56:05.546Z,5.60
2023-04-14T05:58:32.509Z,5.61
2023-04-14T06:00:59.328Z,5.61
2023-04-14T06:03:26.436Z,5.62
2023-04-14T06:05:53.392Z,5.66
2023-04-14T06:08:21.086Z,5.70
2023-04-14T06:10:47.885Z,5.80
2023-04-14T06:13:16.518Z,5.70
2023-04-14T06:15:43.313Z,5.64
2023-04-14T06:18:10.247Z,5.73
2023-04-14T06:20:37.437Z,5.57
2023-04-14T06:23:05.021Z,5.51
2023-04-14T06:25:32.161Z,5.62
2023-04-14T06:27:58.981Z,5.78
2023-04-14T06:30:28.756Z,5.57
2023-04-14T06:32:55.693Z,5.73
2023-04-14T06:35:30.063Z,5.74
2023-04-14T06:37:59.953Z,5.81
2023-04-14T06:40:26.777Z,5.92
2023-04-14T06:42:53.751Z,6.04
2023-04-14T06:45:20.751Z,6.03
2023-04-14T06:47:47.671Z,6.11
2023-04-14T06:50:14.780Z,6.27
2023-04-14T06:52:41.597Z,6.36
2023-04-14T06:55:09.245Z,6.45
2023-04-14T06:57:36.322Z,6.58
2023-04-14T07:00:04.893Z,6.55
2023-04-14T07:02:32.112Z,6.58
2023-04-14T07:04:59.152Z,6.60
2023-04-14T07:07:26.053Z,6.77
2023-04-14T07:09:52.954Z,6.77
2023-04-14T07:12:19.697Z,6.74
2023-04-14T07:14:53.016Z,6.73
2023-04-14T07:17:20.140Z,6.79
2023-04-14T07:19:47.004Z,6.77
2023-04-14T07:22:13.975Z,6.89
2023-04-14T07:24:40.926Z,6.82
2023-04-14T07:27:07.868Z,6.88
2023-04-14T07:29:35.202Z,6.95
2023-04-14T07:32:02.026Z,7.08
2023-04-14T07:34:28.872Z,7.14
2023-04-14T07:36:55.664Z,7.20
2023-04-14T07:39:23.962Z,7.29
2023-04-14T07:41:51.016Z,7.32
2023-04-14T07:44:17.765Z,7.39
2023-04-14T07:46:44.964Z,7.44
2023-04-14T07:49:12.017Z,7.47
2023-04-14T07:51:38.815Z,7.56
2023-04-14T07:54:06.547Z,7.51
2023-04-14T07:56:33.681Z,7.58
2023-04-14T07:59:00.810Z,7.58
2023-04-14T08:01:27.943Z,7.70
2023-04-14T08:03:58.199Z,7.66
2023-04-14T08:06:27.086Z,7.63
2023-04-14T08:08:54.083Z,7.76
2023-04-14T08:11:21.267Z,7.79
2023-04-14T08:13:50.238Z,7.79
2023-04-14T08:16:17.500Z,7.79
2023-04-14T08:18:45.334Z,7.83
2023-04-14T08:21:12.292Z,7.87
2023-04-14T08:23:39.293Z,8.03
2023-04-14T08:26:06.187Z,8.12
2023-04-14T08:28:33.751Z,8.05
2023-04-14T08:31:00.930Z,8.24
2023-04-14T08:33:28.416Z,8.17
2023-04-14T08:35:59.455Z,8.24
2023-04-14T08:38:29.193Z,8.25
2023-04-14T08:40:57.002Z,8.27
2023-04-14T08:43:24.065Z,8.30
2023-04-14T08:45:52.052Z,8.37
2023-04-14T08:48:21.997Z,8.40
2023-04-14T08:51:07.385Z,8.45
2023-04-14T08:53:36.044Z,8.50
2023-04-14T08:56:04.605Z,8.58
2023-04-14T08:58:32.818Z,8.55
2023-04-14T09:00:59.944Z,8.78
2023-04-14T09:03:27.470Z,8.88
2023-04-14T09:05:54.927Z,8.93
2023-04-14T09:08:27.685Z,8.89
2023-04-14T09:10:55.034Z,9.05
2023-04-14T09:13:23.737Z,9.19
2023-04-14T09:15:50.748Z,9.37
2023-04-14T09:18:17.595Z,9.39
2023-04-14T09:20:48.028Z,9.46
2023-04-14T09:23:35.058Z,9.54
2023-04-14T09:26:02.694Z,9.55
2023-04-14T09:28:29.459Z,9.70
2023-04-14T09:30:56.776Z,9.81
2023-04-14T09:33:23.993Z,9.95
2023-04-14T09:35:51.695Z,10.05
2023-04-14T09:38:36.083Z,10.41
2023-04-14T09:41:04.322Z,10.80
2023-04-14T09:43:31.059Z,11.01
2023-04-14T09:46:11.194Z,11.17
2023-04-14T09:48:55.776Z,11.29
2023-04-14T09:51:24.774Z,11.43
2023-04-14T09:53:53.526Z,11.50
2023-04-14T09:56:21.559Z,11.65
2023-04-14T09:58:50.612Z,11.87
2023-04-14T10:01:21.034Z,11.87
2023-04-14T10:03:48.979Z,12.07
2023-04-14T10:06:20.449Z,12.21
2023-04-14T10:08:49.461Z,12.15
2023-04-14T10:11:21.335Z,11.93
2023-04-14T10:13:55.969Z,12.05
2023-04-14T10:16:24.184Z,12.23
2023-04-14T10:18:53.897Z,12.24
2023-04-14T10:21:23.406Z,12.09
2023-04-14T10:23:51.393Z,12.08
2023-04-14T10:26:19.421Z,12.17
2023-04-14T10:28:52.143Z,12.41
2023-04-14T10:31:33.969Z,12.24
2023-04-14T10:34:16.545Z,12.36
2023-04-14T10:36:44.043Z,12.39
2023-04-14T10:39:12.160Z,12.18
2023-04-14T10:41:49.498Z,12.09
2023-04-14T10:44:35.763Z,12.24
2023-04-14T10:47:05.629Z,12.23
2023-04-14T10:49:40.843Z,12.32
2023-04-14T10:52:38.464Z,12.53
2023-04-14T10:55:10.285Z,12.46
2023-04-14T10:57:41.629Z,12.56
2023-04-14T11:00:26.585Z,12.58
2023-04-14T11:03:15.475Z,12.67
2023-04-14T11:05:43.736Z,12.87
2023-04-14T11:08:27.714Z,13.12
2023-04-14T11:11:04.841Z,13.24
2023-04-14T11:13:32.551Z,13.42
2023-04-14T11:16:04.499Z,13.36
2023-04-14T11:18:38.079Z,13.20
2023-04-14T11:21:06.839Z,13.23
2023-04-14T11:23:35.486Z,13.36
2023-04-14T11:26:02.553Z,13.32
2023-04-14T11:28:34.063Z,13.39
2023-04-14T11:31:03.889Z,13.37
2023-04-14T11:33:36.163Z,13.42
2023-04-14T11:36:04.736Z,13.41
2023-04-14T11:38:31.971Z,13.50
2023-04-14T11:40:58.798Z,13.56
2023-04-14T11:43:25.850Z,13.60
2023-04-14T11:45:52.862Z,13.59
2023-04-14T11:48:20.703Z,13.50
2023-04-14T11:50:48.946Z,13.47
2023-04-14T11:53:20.051Z,13.49
2023-04-14T11:55:48.635Z,13.63
2023-04-14T11:58:19.600Z,13.73
2023-04-14T12:00:49.212Z,13.41
2023-04-14T12:03:16.532Z,13.31
2023-04-14T12:05:43.990Z,12.82
2023-04-14T12:08:12.891Z,12.82
2023-04-14T12:10:42.336Z,12.57
2023-04-14T12:13:11.463Z,12.28
2023-04-14T12:15:40.442Z,12.33
2023-04-14T12:18:14.217Z,12.57
2023-04-14T12:20:55.238Z,12.68
2023-04-14T12:23:23.030Z,12.89
2023-04-14T12:25:50.432Z,13.01
2023-04-14T12:28:25.416Z,12.95
2023-04-14T12:30:53.247Z,12.90
2023-04-14T12:33:24.026Z,13.25
2023-04-14T12:35:51.510Z,13.08
2023-04-14T12:38:18.380Z,12.49
2023-04-14T12:40:47.363Z,12.62
2023-04-14T12:43:15.241Z,12.84
2023-04-14T12:45:44.205Z,13.00
2023-04-14T12:48:12.850Z,12.87
2023-04-14T12:50:39.894Z,13.02
2023-04-14T12:53:26.681Z,12.88
2023-04-14T12:56:16.730Z,12.74
2023-04-14T12:58:58.875Z,12.79
2023-04-14T13:01:26.031Z,12.88
2023-04-14T13:03:56.176Z,12.96
2023-04-14T13:06:24.381Z,13.00
2023-04-14T13:08:55.338Z,12.83
2023-04-14T13:11:23.872Z,12.94
2023-04-14T13:13:54.409Z,13.09
2023-04-14T13:16:22.584Z,13.19
2023-04-14T13:18:53.028Z,13.13
2023-04-14T13:21:19.902Z,13.37
2023-04-14T13:23:46.786Z,13.49
2023-04-14T13:26:13.936Z,13.55
2023-04-14T13:28:40.823Z,13.66
2023-04-14T13:31:07.763Z,13.82
2023-04-14T13:33:34.841Z,13.94
2023-04-14T13:36:02.954Z,13.90
2023-04-14T13:38:30.080Z,13.78
2023-04-14T13:40:57.217Z,13.75
2023-04-14T13:43:23.908Z,13.88
2023-04-14T13:45:51.338Z,13.92
2023-04-14T13:48:18.373Z,13.75
2023-04-14T13:50:45.129Z,13.74
2023-04-14T13:53:12.607Z,13.69
2023-04-14T13:55:39.502Z,13.59
2023-04-14T13:58:06.370Z,13.49
2023-04-14T14:00:33.421Z,13.64
2023-04-14T14:03:00.796Z,13.56
2023-04-14T14:05:28.228Z,13.51
2023-04-14T14:07:57.580Z,13.42
2023-04-14T14:10:24.508Z,13.46
2023-04-14T14:12:52.103Z,13.56
2023-04-14T14:15:19.741Z,13.78
2023-04-14T14:17:46.745Z,13.68
2023-04-14T14:20:14.202Z,13.49
2023-04-14T14:22:41.362Z,13.48
2023-04-14T14:25:19.384Z,13.49
2023-04-14T14:27:48.508Z,13.34
2023-04-14T14:30:16.339Z,13.39
2023-04-14T14:32:43.417Z,13.40
2023-04-14T14:35:10.858Z,13.50
2023-04-14T14:37:38.100Z,13.29
2023-04-14T14:40:05.847Z,13.43
2023-04-14T14:42:33.409Z,13.44
2023-04-14T14:45:02.062Z,13.24
2023-04-14T14:47:29.255Z,13.24
2023-04-14T14:50:00.987Z,13.24
2023-04-14T14:52:34.225Z,13.32
2023-04-14T14:55:01.646Z,13.51
2023-04-14T14:57:29.569Z,13.39
2023-04-14T14:59:57.282Z,13.39
2023-04-14T15:02:25.590Z,13.31
2023-04-14T15:04:52.970Z,13.25
2023-04-14T15:07:22.703Z,13.25
2023-04-14T15:09:50.688Z,13.18
2023-04-14T15:12:18.630Z,13.23
2023-04-14T15:14:45.691Z,13.28
2023-04-14T15:17:12.532Z,13.34
2023-04-14T15:19:40.475Z,13.33
2023-04-14T15:22:08.189Z,13.36
2023-04-14T15:24:35.297Z,13.36
2023-04-14T15:27:04.037Z,13.32
2023-04-14T15:29:31.688Z,13.37
2023-04-14T15:31:58.913Z,13.55
2023-04-14T15:34:26.420Z,13.61
2023-04-14T15:36:53.282Z,13.67
2023-04-14T15:39:23.779Z,13.70
2023-04-14T15:41:50.782Z,13.64
2023-04-14T15:44:19.009Z,13.81
2023-04-14T15:46:46.629Z,13.96
2023-04-14T15:49:13.390Z,14.07
2023-04-14T15:51:40.885Z,14.11
2023-04-14T15:54:08.462Z,14.16
2023-04-14T15:56:36.054Z,14.18
2023-04-14T15:59:03.154Z,14.07
2023-04-14T16:01:29.952Z,14.06
2023-04-14T16:03:57.417Z,14.04
2023-04-14T16:06:25.377Z,13.94
2023-04-14T16:08:56.338Z,13.91
2023-04-14T16:11:24.498Z,13.79
2023-04-14T16:13:52.934Z,13.95
2023-04-14T16:16:22.540Z,13.89
2023-04-14T16:18:49.689Z,13.98
2023-04-14T16:21:16.834Z,13.91
2023-04-14T16:23:43.898Z,13.68
2023-04-14T16:26:11.403Z,13.95
2023-04-14T16:28:38.413Z,13.80
2023-04-14T16:31:06.089Z,13.69
2023-04-14T16:33:33.371Z,13.57
2023-04-14T16:36:04.203Z,13.48
2023-04-14T16:38:31.122Z,13.40
2023-04-14T16:40:59.064Z,13.32
2023-04-14T16:43:27.885Z,13.06
2023-04-14T16:46:02.307Z,12.85
2023-04-14T16:48:29.715Z,12.81
2023-04-14T16:50:56.741Z,12.76
2023-04-14T16:53:25.380Z,12.73
2023-04-14T16:55:52.973Z,12.69
2023-04-14T16:58:19.943Z,12.60
2023-04-14T17:00:47.244Z,12.60
2023-04-14T17:03:14.258Z,12.52
2023-04-14T17:05:41.345Z,12.41
2023-04-14T17:08:09.023Z,12.47
2023-04-14T17:10:36.001Z,12.27
2023-04-14T17:13:03.133Z,12.23
2023-04-14T17:15:33.861Z,12.34
2023-04-14T17:18:02.167Z,12.19
2023-04-14T17:20:29.765Z,12.02
2023-04-14T17:23:01.346Z,12.01
2023-04-14T17:25:28.825Z,11.92
2023-04-14T17:27:55.712Z,11.96
2023-04-14T17:30:22.498Z,12.00
2023-04-14T17:32:49.889Z,11.90
2023-04-14T17:35:17.265Z,11.96
2023-04-14T17:37:44.459Z,12.04
2023-04-14T17:40:13.968Z,12.08
2023-04-14T17:42:42.531Z,12.20
2023-04-14T17:45:10.473Z,12.00
2023-04-14T17:47:40.152Z,11.88
2023-04-14T17:50:10.774Z,11.88
2023-04-14T17:52:40.436Z,11.97
2023-04-14T17:55:09.302Z,11.85
2023-04-14T17:57:36.553Z,11.76
2023-04-14T18:00:04.529Z,11.84
2023-04-14T18:02:36.895Z,11.76
2023-04-14T18:05:04.508Z,11.57
2023-04-14T18:07:32.322Z,11.47
2023-04-14T18:09:59.038Z,11.46
2023-04-14T18:12:26.333Z,11.26
2023-04-14T18:14:54.623Z,11.08
2023-04-14T18:17:22.951Z,11.03
2023-04-14T18:19:49.875Z,11.13
2023-04-14T18:22:16.724Z,11.10
2023-04-14T18:29:43.660Z,10.96
2023-04-14T18:32:10.623Z,11.00
2023-04-14T18:34:37.808Z,10.94
2023-04-14T18:37:04.648Z,11.03
2023-04-14T18:39:35.326Z,10.95
2023-04-14T18:42:02.186Z,10.77
2023-04-14T18:44:29.461Z,10.64
2023-04-14T18:46:56.609Z,10.64
2023-04-14T18:49:23.913Z,10.42
2023-04-14T18:51:51.175Z,10.37
2023-04-14T18:54:18.059Z,10.35
2023-04-14T18:56:45.351Z,10.49
2023-04-14T18:59:13.109Z,10.40
2023-04-14T19:01:39.969Z,10.42
2023-04-14T19:04:07.950Z,10.19
2023-04-14T19:06:35.128Z,10.16
2023-04-14T19:09:02.368Z,10.14
2023-04-14T19:11:29.852Z,10.06
2023-04-14T19:13:56.693Z,10.23
2023-04-14T19:16:23.448Z,10.21
2023-04-14T19:18:50.344Z,10.18
2023-04-14T19:21:17.540Z,10.02
2023-04-14T19:23:46.033Z,10.08
2023-04-14T19:26:13.882Z,9.98
2023-04-14T19:28:42.655Z,9.83
2023-04-14T19:31:10.379Z,9.75
2023-04-14T19:33:37.893Z,9.68
2023-04-14T19:36:14.612Z,9.64
2023-04-14T19:38:41.785Z,9.44
2023-04-14T19:41:12.164Z,9.43
2023-04-14T19:43:39.161Z,9.38
2023-04-14T19:46:07.527Z,9.45
2023-04-14T19:48:34.665Z,9.49
2023-04-14T19:51:04.941Z,9.37
2023-04-14T19:53:31.981Z,9.31
2023-04-14T19:55:58.927Z,9.21
2023-04-14T19:58:27.385Z,9.10
2023-04-14T20:00:56.433Z,9.04
2023-04-14T20:03:24.492Z,8.91
2023-04-14T20:05:52.830Z,8.94
2023-04-14T20:08:20.914Z,8.83
2023-04-14T20:10:51.604Z,8.81
2023-04-14T20:13:22.794Z,8.71
2023-04-14T20:15:50.003Z,8.70
2023-04-14T20:18:18.136Z,8.64
2023-04-14T20:20:46.076Z,8.70
2023-04-14T20:23:12.832Z,8.56
2023-04-14T20:25:39.895Z,8.46
2023-04-14T20:28:07.743Z,8.40
2023-04-14T20:30:34.575Z,8.33
2023-04-14T20:33:04.601Z,8.20
2023-04-14T20:35:35.067Z,8.26
2023-04-14T20:38:01.842Z,8.26
2023-04-14T20:40:29.409Z,8.27
2023-04-14T20:42:56.178Z,8.14
2023-04-14T20:45:23.076Z,8.11
2023-04-14T20:47:50.399Z,8.05
2023-04-14T20:50:18.143Z,8.12
2023-04-14T20:52:45.257Z,7.97
2023-04-14T20:55:13.649Z,7.81
2023-04-14T20:57:43.560Z,8.00
2023-04-14T21:00:12.258Z,7.98
2023-04-14T21:02:39.292Z,7.83
2023-04-14T21:05:07.236Z,7.86
2023-04-14T21:07:35.775Z,7.70
2023-04-14T21:10:07.336Z,7.72
2023-04-14T21:12:35.908Z,7.66
2023-04-14T21:15:47.387Z,7.68
2023-04-14T21:17:52.920Z,7.77
2023-04-14T21:20:19.687Z,7.67
2023-04-14T21:22:46.882Z,7.48
2023-04-14T21:25:13.930Z,7.48
2023-04-14T21:27:43.423Z,7.44
2023-04-14T21:30:11.029Z,7.46
2023-04-14T21:32:39.705Z,7.37
2023-04-14T21:35:07.732Z,7.26
2023-04-14T21:37:34.631Z,7.35
2023-04-14T21:40:04.579Z,7.17
2023-04-14T21:42:31.780Z,7.20
2023-04-14T21:44:58.603Z,7.26
2023-04-14T21:47:25.383Z,7.15
2023-04-14T21:49:52.112Z,7.19
2023-04-14T21:52:19.356Z,7.01
2023-04-14T21:54:47.775Z,6.82
2023-04-14T21:57:14.490Z,6.86
2023-04-14T21:59:41.601Z,6.98
2023-04-14T22:02:08.418Z,6.95
2023-04-14T22:04:36.816Z,6.92
2023-04-14T22:07:03.959Z,6.80
2023-04-14T22:09:30.755Z,6.85
2023-04-14T22:11:57.921Z,7.00
2023-04-14T22:14:24.757Z,6.83
2023-04-14T22:16:51.542Z,6.72
2023-04-14T22:19:20.014Z,6.56
2023-04-14T22:21:47.658Z,6.60
2023-04-14T22:24:14.745Z,6.59
2023-04-14T22:26:42.391Z,6.52
2023-04-14T22:29:11.449Z,6.52
2023-04-14T22:31:38.734Z,6.53
2023-04-14T22:34:05.942Z,6.49
2023-04-14T22:36:32.680Z,6.58
2023-04-14T22:38:59.633Z,6.50
2023-04-14T22:41:26.527Z,6.50
2023-04-14T22:43:53.258Z,6.39
2023-04-14T22:46:20.136Z,6.38
2023-04-14T22:48:47.454Z,6.34
2023-04-14T22:51:14.278Z,6.35
2023-04-14T22:53:41.515Z,6.29
2023-04-14T22:56:08.832Z,6.20
2023-04-14T22:58:39.510Z,6.03
2023-04-14T23:01:19.025Z,6.14
2023-04-14T23:03:51.338Z,6.12
2023-04-14T23:06:22.215Z,6.08
2023-04-14T23:08:50.052Z,6.04
2023-04-14T23:11:20.250Z,5.95
2023-04-14T23:13:48.114Z,5.91
2023-04-14T23:16:16.901Z,5.98
2023-04-14T23:18:43.993Z,5.92
2023-04-14T23:21:11.167Z,6.07
2023-04-14T23:23:38.162Z,6.10
2023-04-14T23:26:04.911Z,6.04
2023-04-14T23:28:31.839Z,5.91
2023-04-14T23:30:58.868Z,5.61
2023-04-14T23:33:25.783Z,5.68
2023-04-14T23:35:52.875Z,5.63
2023-04-14T23:38:19.746Z,5.61
2023-04-14T23:40:46.919Z,5.74
2023-04-14T23:43:13.583Z,5.71
2023-04-14T23:45:40.318Z,5.71
2023-04-14T23:48:07.722Z,5.67
2023-04-14T23:51:00.120Z,5.72
2023-04-14T23:53:21.536Z,5.66
2023-04-14T23:55:48.677Z,5.62
2023-04-14T23:58:26.095Z,5.60
